createdAt,value
2018-05-31T00:00:54.030Z,74.60
2018-05-31T00:03:21.545Z,74.40
2018-05-31T00:05:49.868Z,73.70
2018-05-31T00:08:17.394Z,73.70
2018-05-31T00:10:44.921Z,74.00
2018-05-31T00:13:12.498Z,74.30
2018-05-31T00:15:40.775Z,74.40
2018-05-31T00:18:08.302Z,74.30
2018-05-31T00:20:35.853Z,73.80
2018-05-31T00:23:03.370Z,73.20
2018-05-31T00:25:30.908Z,73.00
2018-05-31T00:27:59.226Z,73.30
2018-05-31T00:30:26.762Z,73.20
2018-05-31T00:32:54.291Z,73.60
2018-05-31T00:35:22.601Z,73.10
2018-05-31T00:37:50.126Z,73.00
2018-05-31T00:40:17.656Z,72.70
2018-05-31T00:42:45.200Z,73.00
2018-05-31T00:45:12.718Z,73.90
2018-05-31T00:47:41.010Z,73.50
2018-05-31T00:50:08.553Z,73.40
2018-05-31T00:52:36.112Z,73.80
2018-05-31T00:55:04.407Z,74.10
2018-05-31T00:57:31.954Z,74.10
2018-05-31T00:59:59.481Z,74.20
2018-05-31T01:02:27.010Z,74.00
2018-05-31T01:04:54.570Z,74.20
2018-05-31T01:07:22.093Z,74.60
2018-05-31T01:09:49.622Z,74.40
2018-05-31T01:12:17.173Z,74.30
2018-05-31T01:14:44.706Z,74.80
2018-05-31T01:17:12.225Z,74.70
2018-05-31T01:19:39.790Z,74.70
2018-05-31T01:22:07.310Z,75.00
2018-05-31T01:24:34.830Z,75.20
2018-05-31T01:27:02.373Z,75.30
2018-05-31T01:29:29.934Z,77.00
2018-05-31T01:31:58.248Z,76.20
2018-05-31T01:34:25.751Z,76.20
2018-05-31T01:36:53.274Z,76.20
2018-05-31T01:39:20.810Z,76.20
2018-05-31T01:41:48.348Z,75.60
2018-05-31T01:44:15.870Z,76.20
2018-05-31T01:46:44.170Z,76.70
2018-05-31T01:49:11.723Z,76.60
2018-05-31T01:51:39.246Z,76.40
2018-05-31T01:54:06.768Z,76.30
2018-05-31T01:56:34.331Z,77.70
2018-05-31T01:59:01.858Z,76.80
2018-05-31T02:01:29.395Z,76.70
2018-05-31T02:03:57.720Z,77.40
2018-05-31T02:06:25.243Z,76.70
2018-05-31T02:08:53.517Z,76.60
2018-05-31T02:11:21.821Z,77.00
2018-05-31T02:13:49.345Z,76.90
2018-05-31T02:16:16.860Z,77.30
2018-05-31T02:18:44.413Z,76.00
2018-05-31T02:21:11.935Z,76.50
2018-05-31T02:23:40.221Z,76.70
2018-05-31T02:26:07.765Z,76.70
2018-05-31T02:28:36.057Z,77.40
2018-05-31T02:31:03.590Z,78.10
2018-05-31T02:33:31.900Z,78.00
2018-05-31T02:35:59.420Z,78.00
2018-05-31T02:38:27.722Z,79.10
2018-05-31T02:40:55.276Z,78.20
2018-05-31T02:43:23.583Z,79.80
2018-05-31T02:45:51.102Z,79.60
2018-05-31T02:48:19.408Z,79.20
2018-05-31T02:50:46.928Z,79.20
2018-05-31T02:53:14.452Z,78.70
2018-05-31T02:55:42.011Z,78.90
2018-05-31T02:58:09.541Z,78.40
2018-05-31T03:00:37.065Z,78.70
2018-05-31T03:03:04.617Z,79.10
2018-05-31T03:05:32.159Z,79.40
2018-05-31T03:07:59.684Z,79.30
2018-05-31T03:10:27.227Z,79.10
2018-05-31T03:12:54.759Z,79.90
2018-05-31T03:15:22.289Z,80.00
2018-05-31T03:17:49.838Z,81.20
2018-05-31T03:20:17.369Z,80.40
2018-05-31T03:22:44.903Z,80.30
2018-05-31T03:25:13.214Z,80.70
2018-05-31T03:27:40.747Z,80.10
2018-05-31T03:30:08.279Z,80.10
2018-05-31T03:32:35.829Z,81.20
2018-05-31T03:35:03.383Z,81.50
2018-05-31T03:37:30.903Z,83.10
2018-05-31T03:39:58.448Z,82.50
2018-05-31T03:42:26.736Z,82.30
2018-05-31T03:44:54.265Z,82.20
2018-05-31T03:47:22.590Z,82.50
2018-05-31T03:49:50.125Z,82.50
2018-05-31T03:52:17.669Z,82.60
2018-05-31T03:54:45.976Z,83.00
2018-05-31T03:57:13.515Z,83.00
2018-05-31T03:59:41.047Z,83.20
2018-05-31T04:02:08.594Z,83.00
2018-05-31T04:04:36.129Z,83.10
2018-05-31T04:07:03.651Z,82.90
2018-05-31T04:09:32.093Z,83.40
2018-05-31T04:11:59.645Z,85.10
2018-05-31T04:14:27.178Z,84.30
2018-05-31T04:16:54.737Z,83.60
2018-05-31T04:19:22.274Z,83.20
2018-05-31T04:21:49.800Z,83.00
2018-05-31T04:24:18.851Z,83.40
2018-05-31T04:26:46.370Z,83.40
2018-05-31T04:29:14.661Z,82.90
2018-05-31T04:31:42.218Z,82.80
2018-05-31T04:34:10.505Z,82.30
2018-05-31T04:36:38.031Z,82.30
2018-05-31T04:39:06.361Z,82.00
2018-05-31T04:41:33.888Z,82.00
2018-05-31T04:44:01.422Z,82.10
2018-05-31T04:46:28.975Z,82.30
2018-05-31T04:48:56.504Z,82.20
2018-05-31T04:51:24.038Z,82.60
2018-05-31T04:53:51.611Z,82.90
2018-05-31T04:56:19.151Z,82.60
2018-05-31T04:58:46.685Z,82.60
2018-05-31T05:01:15.002Z,82.80
2018-05-31T05:03:42.527Z,82.80
2018-05-31T05:06:10.823Z,83.20
2018-05-31T05:08:38.384Z,83.30
2018-05-31T05:11:05.904Z,82.70
2018-05-31T05:13:34.198Z,82.30
2018-05-31T05:16:02.522Z,80.90
2018-05-31T05:18:30.044Z,81.00
2018-05-31T05:20:57.557Z,80.60
2018-05-31T05:23:25.096Z,80.20
2018-05-31T05:25:52.616Z,80.20
2018-05-31T05:28:20.155Z,79.80
2018-05-31T05:30:48.479Z,81.00
2018-05-31T05:33:16.024Z,80.60
2018-05-31T05:35:43.548Z,80.90
2018-05-31T05:38:11.106Z,80.00
2018-05-31T05:40:39.397Z,80.10
2018-05-31T05:43:07.691Z,79.50
2018-05-31T05:45:35.241Z,79.50
2018-05-31T05:48:02.803Z,79.60
2018-05-31T05:50:31.068Z,78.70
2018-05-31T05:52:59.386Z,78.60
2018-05-31T05:55:26.917Z,78.60
2018-05-31T05:57:54.445Z,77.90
2018-05-31T06:00:21.999Z,77.00
2018-05-31T06:02:49.530Z,75.90
2018-05-31T06:05:17.054Z,75.10
2018-05-31T06:07:44.661Z,74.10
2018-05-31T06:10:12.330Z,73.80
2018-05-31T06:12:40.580Z,72.70
2018-05-31T06:15:08.128Z,72.70
2018-05-31T06:17:35.666Z,72.40
2018-05-31T06:20:03.204Z,72.30
2018-05-31T06:22:31.506Z,71.60
2018-05-31T06:24:59.024Z,71.60
2018-05-31T06:27:26.539Z,70.80
2018-05-31T06:29:54.090Z,71.30
2018-05-31T06:32:21.627Z,71.30
2018-05-31T06:34:49.938Z,68.40
2018-05-31T06:37:17.481Z,68.50
2018-05-31T06:39:44.997Z,68.20
2018-05-31T06:42:12.507Z,68.90
2018-05-31T06:44:40.037Z,69.10
2018-05-31T06:47:08.306Z,69.60
2018-05-31T06:49:35.839Z,69.10
2018-05-31T06:52:03.374Z,67.50
2018-05-31T06:54:30.908Z,68.20
2018-05-31T06:56:59.190Z,65.70
2018-05-31T06:59:26.726Z,65.70
2018-05-31T07:01:55.001Z,64.60
2018-05-31T07:04:23.291Z,66.60
2018-05-31T07:06:51.647Z,66.20
2018-05-31T07:09:19.131Z,66.00
2018-05-31T07:11:47.427Z,66.70
2018-05-31T07:14:14.981Z,66.70
2018-05-31T07:16:42.506Z,66.40
2018-05-31T07:19:10.185Z,65.20
2018-05-31T07:21:38.495Z,67.20
2018-05-31T07:24:06.020Z,67.10
2018-05-31T07:26:33.541Z,64.30
2018-05-31T07:29:01.094Z,63.50
2018-05-31T07:31:28.626Z,61.70
2018-05-31T07:33:56.133Z,63.10
2018-05-31T07:36:24.432Z,66.20
2018-05-31T07:38:52.742Z,65.00
2018-05-31T07:41:20.282Z,65.00
2018-05-31T07:43:47.834Z,62.30
2018-05-31T07:46:15.341Z,62.50
2018-05-31T07:48:42.853Z,62.10
2018-05-31T07:51:10.406Z,59.80
2018-05-31T07:53:38.686Z,56.50
2018-05-31T07:56:06.194Z,56.50
2018-05-31T07:58:33.736Z,54.60
2018-05-31T08:01:01.245Z,54.20
2018-05-31T08:03:29.525Z,46.60
2018-05-31T08:05:57.868Z,46.40
2018-05-31T08:08:25.345Z,46.50
2018-05-31T08:10:52.870Z,47.50
2018-05-31T08:13:20.415Z,45.00
2018-05-31T08:15:47.933Z,43.40
2018-05-31T08:18:15.483Z,42.90
2018-05-31T08:20:43.236Z,41.40
2018-05-31T08:23:10.722Z,40.00
2018-05-31T08:25:40.127Z,39.60
2018-05-31T08:28:08.425Z,38.20
2018-05-31T08:30:35.955Z,38.20
2018-05-31T08:33:04.251Z,35.00
2018-05-31T08:35:32.751Z,35.00
2018-05-31T08:38:00.301Z,34.80
2018-05-31T08:40:27.823Z,35.90
2018-05-31T08:42:55.751Z,31.80
2018-05-31T08:45:23.267Z,33.10
2018-05-31T08:47:51.549Z,32.30
2018-05-31T08:50:19.094Z,32.30
2018-05-31T08:52:47.526Z,30.50
2018-05-31T08:55:15.029Z,30.50
2018-05-31T08:57:43.351Z,30.20
2018-05-31T09:00:10.874Z,30.10
2018-05-31T09:02:39.160Z,29.00
2018-05-31T09:05:06.703Z,29.00
2018-05-31T09:07:34.986Z,30.30
2018-05-31T09:10:03.257Z,30.40
2018-05-31T09:12:31.560Z,29.60
2018-05-31T09:14:59.073Z,29.60
2018-05-31T09:17:27.362Z,28.90
2018-05-31T09:19:55.675Z,30.30
2018-05-31T09:22:23.176Z,30.30
2018-05-31T09:24:50.698Z,28.40
2018-05-31T09:27:18.235Z,28.20
2018-05-31T09:29:45.762Z,27.70
2018-05-31T09:32:13.278Z,31.30
2018-05-31T09:34:40.813Z,28.90
2018-05-31T09:37:09.275Z,32.20
2018-05-31T09:39:37.554Z,28.80
2018-05-31T09:42:05.865Z,29.50
2018-05-31T09:44:33.390Z,29.50
2018-05-31T09:47:00.920Z,28.70
2018-05-31T09:49:28.449Z,28.70
2018-05-31T09:51:55.965Z,30.70
2018-05-31T09:54:24.249Z,31.40
2018-05-31T09:56:52.551Z,29.50
2018-05-31T09:59:20.068Z,29.50
2018-05-31T10:01:48.336Z,29.80
2018-05-31T10:04:15.882Z,29.20
2018-05-31T10:06:43.393Z,30.50
2018-05-31T10:09:10.924Z,31.20
2018-05-31T10:11:39.236Z,32.80
2018-05-31T10:14:06.744Z,32.80
2018-05-31T10:16:35.022Z,29.20
2018-05-31T10:19:02.567Z,29.10
2018-05-31T10:21:30.087Z,28.40
2018-05-31T10:23:57.596Z,28.90
2018-05-31T10:26:25.124Z,30.60
2018-05-31T10:28:52.646Z,29.10
2018-05-31T10:31:20.169Z,30.50
2018-05-31T10:33:47.700Z,30.60
2018-05-31T10:36:15.225Z,30.50
2018-05-31T10:38:42.751Z,31.30
2018-05-31T10:41:10.291Z,31.00
2018-05-31T10:43:37.832Z,33.70
2018-05-31T10:46:05.340Z,32.40
2018-05-31T10:48:33.646Z,33.70
2018-05-31T10:51:01.164Z,33.70
2018-05-31T10:53:28.678Z,32.50
2018-05-31T10:55:56.228Z,34.30
2018-05-31T10:58:23.755Z,34.20
2018-05-31T11:00:51.287Z,35.90
2018-05-31T11:03:18.838Z,35.00
2018-05-31T11:05:46.363Z,36.00
2018-05-31T11:08:13.901Z,35.40
2018-05-31T11:10:41.431Z,31.80
2018-05-31T11:13:08.948Z,35.00
2018-05-31T11:15:36.474Z,35.90
2018-05-31T11:18:04.773Z,33.60
2018-05-31T11:20:32.280Z,33.40
2018-05-31T11:22:59.784Z,31.50
2018-05-31T11:25:27.342Z,32.10
2018-05-31T11:27:54.858Z,32.50
2018-05-31T11:30:22.365Z,30.40
2018-05-31T11:32:49.907Z,31.30
2018-05-31T11:35:17.409Z,32.20
2018-05-31T11:37:44.948Z,29.00
2018-05-31T11:40:12.485Z,30.40
2018-05-31T11:42:40.011Z,30.50
2018-05-31T11:45:07.540Z,28.40
2018-05-31T11:47:35.081Z,28.60
2018-05-31T11:50:02.589Z,29.60
2018-05-31T11:52:30.115Z,30.20
2018-05-31T11:54:57.661Z,29.90
2018-05-31T11:57:25.183Z,31.30
2018-05-31T11:59:53.470Z,29.30
2018-05-31T12:02:21.016Z,29.20
2018-05-31T12:04:49.288Z,30.00
2018-05-31T12:07:17.571Z,28.50
2018-05-31T12:09:45.890Z,29.40
2018-05-31T12:12:13.407Z,29.30
2018-05-31T12:14:41.698Z,28.10
2018-05-31T12:17:09.225Z,28.10
2018-05-31T12:19:36.731Z,27.50
2018-05-31T12:22:04.250Z,28.40
2018-05-31T12:24:32.562Z,31.10
2018-05-31T12:27:00.085Z,30.80
2018-05-31T12:29:28.372Z,32.00
2018-05-31T12:31:56.664Z,29.70
2018-05-31T12:34:24.182Z,29.70
2018-05-31T12:36:52.499Z,28.60
2018-05-31T12:39:20.032Z,28.60
2018-05-31T12:41:48.311Z,26.50
2018-05-31T12:44:16.593Z,28.20
2018-05-31T12:46:44.893Z,27.60
2018-05-31T12:49:12.399Z,27.60
2018-05-31T12:51:39.914Z,27.70
2018-05-31T12:54:07.463Z,27.40
2018-05-31T12:56:34.974Z,29.00
2018-05-31T12:59:02.488Z,27.10
2018-05-31T13:01:30.028Z,27.80
2018-05-31T13:03:57.558Z,28.10
2018-05-31T13:06:25.065Z,28.20
2018-05-31T13:08:52.607Z,29.40
2018-05-31T13:11:20.117Z,29.20
2018-05-31T13:13:47.642Z,29.00
2018-05-31T13:16:15.175Z,27.40
2018-05-31T13:18:43.490Z,29.80
2018-05-31T13:21:10.987Z,29.80
2018-05-31T13:23:38.517Z,31.00
2018-05-31T13:26:06.036Z,28.20
2018-05-31T13:28:33.557Z,28.00
2018-05-31T13:31:01.095Z,28.20
2018-05-31T13:33:28.676Z,29.80
2018-05-31T13:35:56.183Z,29.60
2018-05-31T13:38:23.726Z,30.30
2018-05-31T13:40:51.256Z,29.40
2018-05-31T13:43:18.781Z,29.20
2018-05-31T13:45:46.311Z,29.20
2018-05-31T13:48:13.827Z,29.20
2018-05-31T13:50:41.360Z,28.00
2018-05-31T13:53:08.912Z,29.10
2018-05-31T13:55:36.420Z,29.20
2018-05-31T13:58:04.694Z,31.30
2018-05-31T14:00:33.004Z,32.10
2018-05-31T14:03:00.522Z,32.10
2018-05-31T14:05:28.056Z,34.70
2018-05-31T14:07:55.604Z,34.80
2018-05-31T14:10:23.128Z,35.20
2018-05-31T14:12:50.652Z,36.00
2018-05-31T14:15:18.195Z,37.30
2018-05-31T14:17:45.718Z,36.40
2018-05-31T14:20:13.247Z,37.30
2018-05-31T14:22:41.569Z,37.40
2018-05-31T14:25:09.072Z,37.30
2018-05-31T14:27:36.599Z,39.00
2018-05-31T14:30:04.134Z,38.80
2018-05-31T14:32:31.649Z,39.30
2018-05-31T14:34:59.170Z,39.00
2018-05-31T14:37:26.698Z,38.20
2018-05-31T14:39:54.214Z,37.00
2018-05-31T14:42:21.732Z,33.10
2018-05-31T14:44:49.262Z,33.30
2018-05-31T14:47:17.545Z,31.20
2018-05-31T14:49:45.073Z,31.10
2018-05-31T14:52:12.610Z,29.70
2018-05-31T14:54:40.118Z,33.10
2018-05-31T14:57:07.654Z,35.60
2018-05-31T14:59:35.966Z,37.60
2018-05-31T15:02:03.478Z,36.90
2018-05-31T15:04:31.097Z,36.40
2018-05-31T15:06:58.649Z,38.20
2018-05-31T15:09:26.170Z,38.20
2018-05-31T15:11:54.458Z,41.80
2018-05-31T15:14:22.775Z,44.00
2018-05-31T15:16:50.323Z,44.10
2018-05-31T15:19:18.574Z,45.70
2018-05-31T15:21:46.887Z,46.30
2018-05-31T15:24:14.397Z,46.30
2018-05-31T15:26:42.665Z,47.60
2018-05-31T15:29:10.209Z,47.60
2018-05-31T15:31:38.488Z,48.30
2018-05-31T15:34:06.037Z,48.20
2018-05-31T15:36:35.081Z,48.40
2018-05-31T15:39:02.598Z,48.40
2018-05-31T15:41:31.632Z,48.80
2018-05-31T15:43:59.177Z,48.70
2018-05-31T15:46:27.452Z,49.40
2018-05-31T15:48:55.746Z,49.70
2018-05-31T15:51:23.287Z,49.70
2018-05-31T15:53:50.834Z,50.30
2018-05-31T15:56:18.345Z,50.50
2018-05-31T15:58:45.890Z,50.40
2018-05-31T16:01:13.410Z,52.20
2018-05-31T16:03:40.938Z,53.10
2018-05-31T16:06:08.492Z,55.40
2018-05-31T16:08:36.056Z,55.20
2018-05-31T16:11:03.544Z,55.50
2018-05-31T16:13:31.074Z,56.30
2018-05-31T16:15:58.602Z,56.40
2018-05-31T16:18:26.188Z,57.10
2018-05-31T16:20:53.743Z,57.70
2018-05-31T16:23:21.267Z,57.90
2018-05-31T16:25:48.785Z,58.10
2018-05-31T16:28:16.321Z,58.70
2018-05-31T16:30:43.828Z,60.00
2018-05-31T16:33:12.097Z,59.90
2018-05-31T16:35:40.406Z,60.20
2018-05-31T16:38:07.916Z,59.90
2018-05-31T16:40:35.424Z,59.80
2018-05-31T16:43:02.970Z,60.10
2018-05-31T16:45:30.509Z,61.00
2018-05-31T16:47:59.177Z,61.10
2018-05-31T16:50:26.709Z,61.10
2018-05-31T16:52:54.226Z,64.50
2018-05-31T16:55:22.509Z,66.60
2018-05-31T16:57:53.506Z,66.50
2018-05-31T17:00:22.702Z,67.10
2018-05-31T17:02:50.281Z,66.20
2018-05-31T17:05:18.585Z,70.50
2018-05-31T17:07:46.865Z,71.60
2018-05-31T17:10:14.381Z,71.60
2018-05-31T17:12:41.917Z,73.60
2018-05-31T17:15:09.449Z,74.10
2018-05-31T17:17:36.968Z,72.10
2018-05-31T17:20:04.516Z,72.00
2018-05-31T17:22:32.029Z,72.00
2018-05-31T17:24:59.541Z,71.90
2018-05-31T17:27:27.847Z,78.10
2018-05-31T17:29:55.559Z,78.10
2018-05-31T17:32:23.073Z,78.50
2018-05-31T17:34:50.631Z,79.60
2018-05-31T17:37:18.181Z,79.70
2018-05-31T17:39:46.476Z,78.00
2018-05-31T17:42:14.023Z,77.90
2018-05-31T17:44:41.559Z,77.50
2018-05-31T17:47:09.849Z,78.40
2018-05-31T17:49:38.152Z,79.80
2018-05-31T17:52:05.661Z,79.70
2018-05-31T17:54:33.177Z,78.70
2018-05-31T17:57:00.708Z,78.80
2018-05-31T17:59:28.231Z,78.40
2018-05-31T18:01:55.758Z,78.40
2018-05-31T18:04:23.311Z,80.40
2018-05-31T18:06:50.843Z,80.20
2018-05-31T18:09:18.357Z,80.30
2018-05-31T18:11:45.888Z,81.50
2018-05-31T18:14:13.418Z,81.00
2018-05-31T18:16:41.711Z,80.80
2018-05-31T18:19:09.245Z,80.80
2018-05-31T18:21:37.521Z,81.50
2018-05-31T18:24:05.806Z,80.30
2018-05-31T18:26:34.105Z,81.50
2018-05-31T18:29:01.630Z,81.50
2018-05-31T18:31:29.944Z,81.20
2018-05-31T18:33:57.475Z,81.30
2018-05-31T18:36:25.754Z,80.50
2018-05-31T18:38:54.034Z,81.00
2018-05-31T18:41:21.569Z,80.90
2018-05-31T18:43:49.089Z,81.30
2018-05-31T18:46:16.596Z,81.80
2018-05-31T18:48:44.892Z,82.80
2018-05-31T18:51:27.301Z,82.70
2018-05-31T18:53:54.851Z,83.20
2018-05-31T18:56:22.362Z,83.90
2018-05-31T18:58:49.876Z,84.00
2018-05-31T19:01:17.430Z,83.90
2018-05-31T19:03:44.942Z,85.20
2018-05-31T19:06:12.457Z,85.90
2018-05-31T19:08:40.002Z,86.00
2018-05-31T19:11:07.513Z,83.70
2018-05-31T19:13:40.910Z,83.70
2018-05-31T19:16:08.440Z,85.30
2018-05-31T19:18:41.621Z,88.00
2018-05-31T19:21:09.192Z,86.00
2018-05-31T19:23:36.798Z,86.90
2018-05-31T19:26:04.320Z,86.00
2018-05-31T19:28:31.825Z,78.60
2018-05-31T19:31:05.891Z,77.70
2018-05-31T19:33:33.404Z,77.70
2018-05-31T19:36:07.547Z,82.10
2018-05-31T19:38:35.112Z,82.30
2018-05-31T19:41:02.627Z,83.90
2018-05-31T19:43:36.550Z,85.00
2018-05-31T19:46:04.858Z,85.00
2018-05-31T19:48:32.383Z,85.00
2018-05-31T19:51:00.691Z,86.40
2018-05-31T19:53:33.956Z,86.30
2018-05-31T19:56:02.364Z,87.60
2018-05-31T19:58:35.581Z,87.50
2018-05-31T20:01:08.939Z,87.60
2018-05-31T20:03:37.070Z,88.30
2018-05-31T20:06:04.591Z,87.10
2018-05-31T20:08:32.124Z,87.80
2018-05-31T20:10:59.652Z,88.30
2018-05-31T20:13:27.152Z,88.30
2018-05-31T20:15:54.698Z,87.20
2018-05-31T20:18:22.222Z,87.80
2018-05-31T20:20:49.755Z,87.50
2018-05-31T20:23:17.292Z,86.90
2018-05-31T20:25:44.820Z,89.30
2018-05-31T20:28:13.105Z,88.50
2018-05-31T20:30:40.673Z,88.50
2018-05-31T20:33:08.966Z,86.50
2018-05-31T20:35:36.477Z,86.40
2018-05-31T20:38:04.795Z,87.50
2018-05-31T20:40:32.326Z,87.50
2018-05-31T20:43:00.604Z,86.00
2018-05-31T20:45:28.911Z,85.90
2018-05-31T20:47:56.431Z,85.90
2018-05-31T20:50:24.700Z,85.60
2018-05-31T20:52:53.010Z,85.70
2018-05-31T20:55:20.526Z,85.30
2018-05-31T20:57:48.160Z,85.90
2018-05-31T21:00:15.689Z,85.20
2018-05-31T21:02:43.203Z,86.40
2018-05-31T21:05:10.727Z,87.40
2018-05-31T21:07:38.270Z,86.70
2018-05-31T21:10:05.782Z,85.90
2018-05-31T21:12:33.297Z,86.30
2018-05-31T21:15:00.883Z,85.80
2018-05-31T21:17:28.462Z,86.20
2018-05-31T21:19:57.503Z,85.70
2018-05-31T21:22:25.051Z,85.70
2018-05-31T21:24:52.576Z,85.30
2018-05-31T21:27:20.819Z,85.10
2018-05-31T21:29:48.353Z,85.40
2018-05-31T21:32:15.868Z,84.40
2018-05-31T21:34:43.392Z,84.60
2018-05-31T21:37:10.938Z,84.60
2018-05-31T21:39:38.463Z,84.60
2018-05-31T21:42:06.743Z,82.60
2018-05-31T21:44:34.273Z,82.60
2018-05-31T21:47:01.790Z,84.40
2018-05-31T21:49:29.305Z,84.40
2018-05-31T21:51:57.619Z,83.60
2018-05-31T21:54:25.160Z,83.60
2018-05-31T21:56:53.425Z,83.40
2018-05-31T21:59:21.730Z,82.90
2018-05-31T22:01:49.243Z,82.80
2018-05-31T22:04:16.748Z,82.20
2018-05-31T22:06:44.291Z,82.30
2018-05-31T22:09:11.807Z,83.20
2018-05-31T22:11:39.329Z,85.50
2018-05-31T22:14:06.874Z,86.60
2018-05-31T22:16:34.386Z,87.00
2018-05-31T22:19:01.898Z,87.80
2018-05-31T22:21:29.428Z,87.60
2018-05-31T22:23:57.714Z,87.00
2018-05-31T22:26:25.228Z,86.90
2018-05-31T22:28:52.767Z,86.60
2018-05-31T22:31:20.282Z,86.40
2018-05-31T22:33:48.562Z,86.80
2018-05-31T22:36:16.857Z,87.00
2018-05-31T22:38:44.374Z,87.00
2018-05-31T22:41:11.903Z,87.20
2018-05-31T22:43:39.445Z,87.90
2018-05-31T22:46:06.959Z,86.30
2018-05-31T22:48:35.235Z,86.30
2018-05-31T22:51:03.551Z,86.50
2018-05-31T22:53:31.074Z,86.40
2018-05-31T22:55:59.359Z,86.10
2018-05-31T22:58:27.656Z,85.70
2018-05-31T23:00:55.168Z,85.70
2018-05-31T23:03:22.676Z,86.10
2018-05-31T23:05:50.209Z,86.70
2018-05-31T23:08:18.486Z,86.50
2018-05-31T23:10:46.000Z,86.50
2018-05-31T23:13:13.538Z,87.00
2018-05-31T23:15:41.054Z,87.40
2018-05-31T23:18:09.322Z,88.20
2018-05-31T23:20:37.626Z,88.30
2018-05-31T23:23:05.148Z,88.90
2018-05-31T23:25:32.671Z,89.30
2018-05-31T23:28:00.205Z,90.00
2018-05-31T23:30:27.727Z,89.70
2018-05-31T23:32:55.343Z,88.60
2018-05-31T23:35:22.886Z,88.60
2018-05-31T23:37:50.402Z,89.90
2018-05-31T23:40:18.019Z,90.00
2018-05-31T23:42:45.563Z,89.50
2018-05-31T23:45:13.068Z,88.90
2018-05-31T23:47:40.586Z,89.40
2018-05-31T23:50:08.117Z,89.10
2018-05-31T23:52:36.399Z,89.70
2018-05-31T23:55:04.672Z,89.70
2018-05-31T23:57:33.194Z,89.30
